createdAt,value
2022-11-29T00:01:39.964Z,43.74
2022-11-29T00:04:08.238Z,43.79
2022-11-29T00:06:37.241Z,43.75
2022-11-29T00:09:08.034Z,43.80
2022-11-29T00:11:54.813Z,43.79
2022-11-29T00:14:24.952Z,43.80
2022-11-29T00:16:53.763Z,43.85
2022-11-29T00:19:22.843Z,43.91
2022-11-29T00:21:50.810Z,43.87
2022-11-29T00:24:19.016Z,43.93
2022-11-29T00:26:47.107Z,43.90
2022-11-29T00:29:15.459Z,43.91
2022-11-29T00:31:46.253Z,44.00
2022-11-29T00:34:14.476Z,43.94
2022-11-29T00:36:43.108Z,44.02
2022-11-29T00:39:16.416Z,44.07
2022-11-29T00:41:44.771Z,44.11
2022-11-29T00:44:18.389Z,44.12
2022-11-29T00:46:49.640Z,44.16
2022-11-29T00:49:18.000Z,44.18
2022-11-29T00:51:46.223Z,44.24
2022-11-29T00:54:14.435Z,44.34
2022-11-29T00:56:42.905Z,44.42
2022-11-29T00:59:11.272Z,44.55
2022-11-29T01:01:39.342Z,44.68
2022-11-29T01:04:08.799Z,44.78
2022-11-29T01:06:36.829Z,44.90
2022-11-29T01:09:05.330Z,44.97
2022-11-29T01:11:33.310Z,45.06
2022-11-29T01:14:02.953Z,45.07
2022-11-29T01:16:32.520Z,45.13
2022-11-29T01:19:00.979Z,45.21
2022-11-29T01:21:30.604Z,45.32
2022-11-29T01:23:58.716Z,45.32
2022-11-29T01:26:28.887Z,45.40
2022-11-29T01:28:58.621Z,45.42
2022-11-29T01:31:29.280Z,45.39
2022-11-29T01:33:58.765Z,45.47
2022-11-29T01:36:27.313Z,45.55
2022-11-29T01:38:57.072Z,45.62
2022-11-29T01:41:27.149Z,45.70
2022-11-29T01:43:57.322Z,45.71
2022-11-29T01:46:26.660Z,45.74
2022-11-29T01:49:01.498Z,45.81
2022-11-29T01:51:31.791Z,45.88
2022-11-29T01:54:01.464Z,45.82
2022-11-29T01:56:31.303Z,45.81
2022-11-29T01:59:01.380Z,45.99
2022-11-29T02:01:29.519Z,46.05
2022-11-29T02:03:57.940Z,46.07
2022-11-29T02:06:26.611Z,46.25
2022-11-29T02:08:54.629Z,46.34
2022-11-29T02:11:56.537Z,46.50
2022-11-29T02:14:41.143Z,46.63
2022-11-29T02:17:18.406Z,46.80
2022-11-29T02:20:21.619Z,46.93
2022-11-29T02:22:58.299Z,47.00
2022-11-29T02:25:44.291Z,47.38
2022-11-29T02:28:48.488Z,47.67
2022-11-29T02:31:51.966Z,47.92
2022-11-29T02:34:47.028Z,48.22
2022-11-29T02:37:31.740Z,48.48
2022-11-29T02:40:12.756Z,48.54
2022-11-29T02:43:22.791Z,48.70
2022-11-29T02:46:04.308Z,48.64
2022-11-29T02:48:51.742Z,48.64
2022-11-29T02:51:31.165Z,48.56
2022-11-29T02:54:05.508Z,48.49
2022-11-29T02:56:41.972Z,48.41
2022-11-29T02:59:15.599Z,48.36
2022-11-29T03:01:53.424Z,48.31
2022-11-29T03:04:31.538Z,48.10
2022-11-29T03:07:08.396Z,48.08
2022-11-29T03:09:42.797Z,48.06
2022-11-29T03:12:20.057Z,47.96
2022-11-29T03:14:58.986Z,47.86
2022-11-29T03:17:36.849Z,47.81
2022-11-29T03:20:18.638Z,47.72
2022-11-29T03:23:06.185Z,47.63
2022-11-29T03:25:40.239Z,47.53
2022-11-29T03:28:14.710Z,47.46
2022-11-29T03:30:48.413Z,47.46
2022-11-29T03:33:25.126Z,47.42
2022-11-29T03:36:03.028Z,47.38
2022-11-29T03:38:40.810Z,47.40
2022-11-29T03:41:19.945Z,47.37
2022-11-29T03:43:56.020Z,47.29
2022-11-29T03:46:31.952Z,47.40
2022-11-29T03:49:04.601Z,47.47
2022-11-29T03:51:44.201Z,47.52
2022-11-29T03:54:20.255Z,47.50
2022-11-29T03:56:48.956Z,47.53
2022-11-29T03:59:34.209Z,47.55
2022-11-29T04:02:40.660Z,47.65
2022-11-29T04:05:37.444Z,47.70
2022-11-29T04:08:20.951Z,47.74
2022-11-29T04:11:06.633Z,47.78
2022-11-29T04:14:12.183Z,47.82
2022-11-29T04:17:20.209Z,47.89
2022-11-29T04:20:23.300Z,47.97
2022-11-29T04:23:20.078Z,47.95
2022-11-29T04:26:06.626Z,48.04
2022-11-29T04:29:05.590Z,48.11
2022-11-29T04:31:46.932Z,48.14
2022-11-29T04:35:00.032Z,48.22
2022-11-29T04:37:47.104Z,48.22
2022-11-29T04:40:34.896Z,48.28
2022-11-29T04:43:22.448Z,48.36
2022-11-29T04:46:09.776Z,48.33
2022-11-29T04:48:54.475Z,48.36
2022-11-29T04:51:31.217Z,48.38
2022-11-29T04:54:10.420Z,48.48
2022-11-29T04:56:44.527Z,48.59
2022-11-29T04:59:20.666Z,48.58
2022-11-29T05:02:01.948Z,48.70
2022-11-29T05:04:37.286Z,48.78
2022-11-29T05:07:12.906Z,49.11
2022-11-29T05:09:58.867Z,49.27
2022-11-29T05:12:35.120Z,49.47
2022-11-29T05:15:33.220Z,49.75
2022-11-29T05:18:14.540Z,49.99
2022-11-29T05:20:49.402Z,50.20
2022-11-29T05:23:33.508Z,50.37
2022-11-29T05:26:06.746Z,50.64
2022-11-29T05:28:45.273Z,50.86
2022-11-29T05:31:42.502Z,51.11
2022-11-29T05:34:35.086Z,51.41
2022-11-29T05:37:14.058Z,51.41
2022-11-29T05:39:58.515Z,51.58
2022-11-29T05:42:40.087Z,51.78
2022-11-29T05:45:15.708Z,51.79
2022-11-29T05:47:51.613Z,51.78
2022-11-29T05:50:28.112Z,52.00
2022-11-29T05:53:18.196Z,52.53
2022-11-29T05:55:58.337Z,53.30
2022-11-29T05:58:36.442Z,54.31
2022-11-29T06:01:15.242Z,54.62
2022-11-29T06:03:52.205Z,54.87
2022-11-29T06:06:29.166Z,55.41
2022-11-29T06:09:04.783Z,55.63
2022-11-29T06:11:36.576Z,55.94
2022-11-29T06:14:13.674Z,56.06
2022-11-29T06:16:57.830Z,55.88
2022-11-29T06:19:53.036Z,55.54
2022-11-29T06:22:35.593Z,55.09
2022-11-29T06:25:20.372Z,54.81
2022-11-29T06:28:10.961Z,54.51
2022-11-29T06:30:49.065Z,54.08
2022-11-29T06:33:23.724Z,53.78
2022-11-29T06:36:08.997Z,53.31
2022-11-29T06:38:37.249Z,53.04
2022-11-29T06:41:06.097Z,52.79
2022-11-29T06:43:34.736Z,52.63
2022-11-29T06:46:11.124Z,52.41
2022-11-29T06:48:46.546Z,52.16
2022-11-29T06:51:23.716Z,52.11
2022-11-29T06:53:58.312Z,51.79
2022-11-29T06:56:34.361Z,51.60
2022-11-29T06:59:06.933Z,51.43
2022-11-29T07:01:41.504Z,51.40
2022-11-29T07:04:45.478Z,51.35
2022-11-29T07:07:18.924Z,51.26
2022-11-29T07:09:49.363Z,51.23
2022-11-29T07:12:20.967Z,51.31
2022-11-29T07:14:49.692Z,51.18
2022-11-29T07:17:26.984Z,51.28
2022-11-29T07:20:04.964Z,51.29
2022-11-29T07:22:53.496Z,51.41
2022-11-29T07:25:32.142Z,51.34
2022-11-29T07:28:14.399Z,51.58
2022-11-29T07:30:52.003Z,51.63
2022-11-29T07:33:34.540Z,51.69
2022-11-29T07:36:10.854Z,51.71
2022-11-29T07:38:54.479Z,51.71
2022-11-29T07:41:28.239Z,51.80
2022-11-29T07:44:06.528Z,51.82
2022-11-29T07:46:34.750Z,51.95
2022-11-29T07:49:02.929Z,51.86
2022-11-29T07:51:32.404Z,51.82
2022-11-29T07:54:02.051Z,51.82
2022-11-29T07:56:30.409Z,51.81
2022-11-29T07:58:58.766Z,51.87
2022-11-29T08:01:27.289Z,51.66
2022-11-29T08:03:55.748Z,51.63
2022-11-29T08:06:27.407Z,51.51
2022-11-29T08:08:58.435Z,51.62
2022-11-29T08:11:28.862Z,51.47
2022-11-29T08:13:58.683Z,51.42
2022-11-29T08:16:27.211Z,51.29
2022-11-29T08:18:55.554Z,51.27
2022-11-29T08:21:24.017Z,51.25
2022-11-29T08:23:52.625Z,51.23
2022-11-29T08:26:24.465Z,51.06
2022-11-29T08:28:57.899Z,50.97
2022-11-29T08:31:26.181Z,50.82
2022-11-29T08:33:54.316Z,51.02
2022-11-29T08:36:22.583Z,50.92
2022-11-29T08:38:54.177Z,51.00
2022-11-29T08:41:27.559Z,51.10
2022-11-29T08:43:57.214Z,51.04
2022-11-29T08:46:46.020Z,51.34
2022-11-29T08:49:14.135Z,51.38
2022-11-29T08:51:42.307Z,51.45
2022-11-29T08:54:12.449Z,51.65
2022-11-29T08:59:30.017Z,51.90
2022-11-29T09:01:58.086Z,51.74
2022-11-29T09:04:26.205Z,51.81
2022-11-29T09:06:54.288Z,51.87
2022-11-29T09:09:22.710Z,51.99
2022-11-29T09:11:50.995Z,51.80
2022-11-29T09:14:20.060Z,51.97
2022-11-29T09:16:50.267Z,52.17
2022-11-29T09:19:19.669Z,52.47
2022-11-29T09:21:51.010Z,52.34
2022-11-29T09:24:25.500Z,52.24
2022-11-29T09:26:54.732Z,52.25
2022-11-29T09:29:31.373Z,52.32
2022-11-29T09:32:01.769Z,52.32
2022-11-29T09:34:34.795Z,52.41
2022-11-29T09:37:17.616Z,52.37
2022-11-29T09:39:46.555Z,52.30
2022-11-29T09:42:38.323Z,52.31
2022-11-29T09:45:12.293Z,52.30
2022-11-29T09:48:06.708Z,52.30
2022-11-29T09:50:43.213Z,52.33
2022-11-29T09:53:31.617Z,52.57
2022-11-29T09:56:17.866Z,52.73
2022-11-29T09:58:54.489Z,52.65
2022-11-29T10:01:39.195Z,52.69
2022-11-29T10:04:26.114Z,52.73
2022-11-29T10:07:03.422Z,52.97
2022-11-29T10:09:39.968Z,52.79
2022-11-29T10:12:16.008Z,52.90
2022-11-29T10:14:52.576Z,52.93
2022-11-29T10:17:36.541Z,53.25
2022-11-29T10:20:18.525Z,53.44
2022-11-29T10:22:53.699Z,53.81
2022-11-29T10:25:39.164Z,53.92
2022-11-29T10:28:18.874Z,54.32
2022-11-29T10:30:53.181Z,55.02
2022-11-29T10:33:28.844Z,55.58
2022-11-29T10:36:00.719Z,55.73
2022-11-29T10:38:31.437Z,56.23
2022-11-29T10:41:07.953Z,56.76
2022-11-29T10:43:37.390Z,57.41
2022-11-29T10:46:07.772Z,57.86
2022-11-29T10:48:36.525Z,59.29
2022-11-29T10:51:18.266Z,60.42
2022-11-29T10:53:46.971Z,61.64
2022-11-29T10:56:24.322Z,63.30
2022-11-29T10:58:56.995Z,64.97
2022-11-29T11:01:28.991Z,65.70
2022-11-29T11:03:59.536Z,67.54
2022-11-29T11:06:45.065Z,68.50
2022-11-29T11:09:20.389Z,69.14
2022-11-29T11:11:53.321Z,71.83
2022-11-29T11:14:23.621Z,72.94
2022-11-29T11:16:52.522Z,74.07
2022-11-29T11:19:28.947Z,75.64
2022-11-29T11:22:00.667Z,74.74
2022-11-29T11:24:31.673Z,74.98
2022-11-29T11:27:01.627Z,75.62
2022-11-29T11:29:37.043Z,75.69
2022-11-29T11:32:06.245Z,75.50
2022-11-29T11:34:35.999Z,74.56
2022-11-29T11:37:21.386Z,81.15
2022-11-29T11:39:51.449Z,88.10
2022-11-29T11:42:41.000Z,88.07
2022-11-29T11:45:27.219Z,91.43
2022-11-29T11:47:57.939Z,89.08
2022-11-29T11:50:32.682Z,88.63
2022-11-29T11:53:06.076Z,88.17
2022-11-29T11:55:37.676Z,87.18
2022-11-29T11:58:22.636Z,86.83
2022-11-29T12:01:08.663Z,85.53
2022-11-29T12:03:49.349Z,84.36
2022-11-29T12:06:40.942Z,83.44
2022-11-29T12:09:19.425Z,82.94
2022-11-29T12:11:55.200Z,81.48
2022-11-29T12:14:32.855Z,80.36
2022-11-29T12:17:08.984Z,78.98
2022-11-29T12:19:47.124Z,78.23
2022-11-29T12:22:20.174Z,77.35
2022-11-29T12:24:58.577Z,76.58
2022-11-29T12:27:26.906Z,73.91
2022-11-29T12:29:55.177Z,77.89
2022-11-29T12:32:53.354Z,81.16
2022-11-29T12:35:38.656Z,81.81
2022-11-29T12:38:17.436Z,82.92
2022-11-29T12:40:56.802Z,83.13
2022-11-29T12:43:40.784Z,82.91
2022-11-29T12:46:13.100Z,82.41
2022-11-29T12:48:52.612Z,81.89
2022-11-29T12:51:29.739Z,79.78
2022-11-29T12:54:15.729Z,79.54
2022-11-29T12:56:51.786Z,79.32
2022-11-29T12:59:30.364Z,78.40
2022-11-29T13:02:20.156Z,78.08
2022-11-29T13:05:00.404Z,79.54
2022-11-29T13:07:39.682Z,79.74
2022-11-29T13:10:29.914Z,80.10
2022-11-29T13:13:05.917Z,80.69
2022-11-29T13:15:42.852Z,82.57
2022-11-29T13:18:18.510Z,83.07
2022-11-29T13:20:52.290Z,83.93
2022-11-29T13:23:46.104Z,85.13
2022-11-29T13:26:18.356Z,84.76
2022-11-29T13:28:48.286Z,82.74
2022-11-29T13:31:19.921Z,84.09
2022-11-29T13:34:01.716Z,90.97
2022-11-29T13:36:46.970Z,91.73
2022-11-29T13:39:29.588Z,98.35
2022-11-29T13:42:06.566Z,100.00
2022-11-29T13:44:46.721Z,100.00
2022-11-29T13:47:17.037Z,100.00
2022-11-29T13:49:54.204Z,100.00
2022-11-29T13:52:41.300Z,100.00
2022-11-29T13:55:31.420Z,100.00
2022-11-29T13:58:22.728Z,100.00
2022-11-29T14:00:53.364Z,100.00
2022-11-29T14:03:34.712Z,99.87
2022-11-29T14:06:22.187Z,95.59
2022-11-29T14:09:25.763Z,93.59
2022-11-29T14:12:02.949Z,90.54
2022-11-29T14:14:36.527Z,87.51
2022-11-29T14:17:27.089Z,84.28
2022-11-29T14:20:33.833Z,83.59
2022-11-29T14:23:17.348Z,81.67
2022-11-29T14:26:21.487Z,80.82
2022-11-29T14:28:52.056Z,79.96
2022-11-29T14:31:52.776Z,79.58
2022-11-29T14:34:47.467Z,79.52
2022-11-29T14:37:36.568Z,79.91
2022-11-29T14:40:21.353Z,79.50
2022-11-29T14:42:50.152Z,77.80
2022-11-29T14:45:30.632Z,79.07
2022-11-29T14:47:59.460Z,80.46
2022-11-29T14:50:37.888Z,79.35
2022-11-29T14:53:07.605Z,77.63
2022-11-29T14:55:38.316Z,79.98
2022-11-29T14:58:22.297Z,81.72
2022-11-29T15:01:10.984Z,80.06
2022-11-29T15:03:50.742Z,80.84
2022-11-29T15:06:28.511Z,79.18
2022-11-29T15:09:02.916Z,79.42
2022-11-29T15:11:49.572Z,79.92
2022-11-29T15:14:26.071Z,79.53
2022-11-29T15:17:06.790Z,79.41
2022-11-29T15:19:53.850Z,79.17
2022-11-29T15:22:27.739Z,78.69
2022-11-29T15:24:58.170Z,78.88
2022-11-29T15:27:26.755Z,78.25
2022-11-29T15:29:54.854Z,78.48
2022-11-29T15:32:26.214Z,76.27
2022-11-29T15:34:56.179Z,72.08
2022-11-29T15:37:44.638Z,72.39
2022-11-29T15:40:15.783Z,72.48
2022-11-29T15:42:47.191Z,72.02
2022-11-29T15:45:26.348Z,71.97
2022-11-29T15:47:55.596Z,71.03
2022-11-29T15:50:30.449Z,70.92
2022-11-29T15:53:04.976Z,70.25
2022-11-29T15:55:35.718Z,68.89
2022-11-29T15:58:08.657Z,68.27
2022-11-29T16:00:37.937Z,67.63
2022-11-29T16:03:08.691Z,67.72
2022-11-29T16:05:39.534Z,67.31
2022-11-29T16:08:15.536Z,66.70
2022-11-29T16:10:47.459Z,66.59
2022-11-29T16:13:33.389Z,65.66
2022-11-29T16:16:11.781Z,65.70
2022-11-29T16:18:42.335Z,64.54
2022-11-29T16:21:24.970Z,64.43
2022-11-29T16:23:55.086Z,62.37
2022-11-29T16:26:27.775Z,63.17
2022-11-29T16:28:57.956Z,63.69
2022-11-29T16:31:33.133Z,63.80
2022-11-29T16:34:09.147Z,63.72
2022-11-29T16:36:37.948Z,63.99
2022-11-29T16:39:16.353Z,63.58
2022-11-29T16:41:44.520Z,63.77
2022-11-29T16:44:57.932Z,63.59
2022-11-29T16:47:27.595Z,63.74
2022-11-29T16:50:14.156Z,63.47
2022-11-29T16:52:42.234Z,63.23
2022-11-29T16:55:12.290Z,62.97
2022-11-29T16:57:41.383Z,62.60
2022-11-29T17:00:31.734Z,62.79
2022-11-29T17:03:00.263Z,62.99
2022-11-29T17:05:29.098Z,62.76
2022-11-29T17:07:57.759Z,62.41
2022-11-29T17:10:28.927Z,62.26
2022-11-29T17:12:58.460Z,61.90
2022-11-29T17:15:26.916Z,61.72
2022-11-29T17:17:55.291Z,61.62
2022-11-29T17:20:23.556Z,61.09
2022-11-29T17:22:54.142Z,61.01
2022-11-29T17:25:24.730Z,60.86
2022-11-29T17:27:56.400Z,60.76
2022-11-29T17:30:24.699Z,60.65
2022-11-29T17:32:52.988Z,60.49
2022-11-29T17:35:21.468Z,60.78
2022-11-29T17:37:49.684Z,60.55
2022-11-29T17:40:17.967Z,60.59
2022-11-29T17:42:48.278Z,60.66
2022-11-29T17:45:17.915Z,60.70
2022-11-29T17:47:46.146Z,60.45
2022-11-29T17:50:14.310Z,60.34
2022-11-29T17:52:42.626Z,59.85
2022-11-29T17:55:11.263Z,59.50
2022-11-29T17:57:39.400Z,59.57
2022-11-29T18:00:10.719Z,59.51
2022-11-29T18:02:40.502Z,59.71
2022-11-29T18:05:09.523Z,59.33
2022-11-29T18:07:58.043Z,59.16
2022-11-29T18:10:26.453Z,59.36
2022-11-29T18:12:54.936Z,59.30
2022-11-29T18:15:23.870Z,59.47
2022-11-29T18:17:53.466Z,59.45
2022-11-29T18:20:21.715Z,59.63
2022-11-29T18:22:49.975Z,59.80
2022-11-29T18:25:38.123Z,60.27
2022-11-29T18:28:08.556Z,60.10
2022-11-29T18:30:36.983Z,60.53
2022-11-29T18:33:06.889Z,60.79
2022-11-29T18:35:35.251Z,60.63
2022-11-29T18:38:18.901Z,60.82
2022-11-29T18:40:47.117Z,60.83
2022-11-29T18:43:17.906Z,61.19
2022-11-29T18:45:46.121Z,61.51
2022-11-29T18:48:15.758Z,61.43
2022-11-29T18:50:43.968Z,61.97
2022-11-29T18:53:12.123Z,61.64
2022-11-29T18:55:40.407Z,61.99
2022-11-29T18:58:08.557Z,62.58
2022-11-29T19:00:39.085Z,63.37
2022-11-29T19:03:07.153Z,63.10
2022-11-29T19:05:36.830Z,63.58
2022-11-29T19:08:07.839Z,63.96
2022-11-29T19:10:54.722Z,64.31
2022-11-29T19:13:29.885Z,67.10
2022-11-29T19:15:58.721Z,68.78
2022-11-29T19:18:27.374Z,69.94
2022-11-29T19:21:04.939Z,70.34
2022-11-29T19:23:33.442Z,71.07
2022-11-29T19:26:04.960Z,70.99
2022-11-29T19:28:33.582Z,71.19
2022-11-29T19:31:05.354Z,70.94
2022-11-29T19:33:35.220Z,70.91
2022-11-29T19:36:07.643Z,71.42
2022-11-29T19:38:37.174Z,70.29
2022-11-29T19:41:09.230Z,69.61
2022-11-29T19:43:37.525Z,68.59
2022-11-29T19:46:09.933Z,68.42
2022-11-29T19:48:38.437Z,68.19
2022-11-29T19:51:09.599Z,68.96
2022-11-29T19:53:38.163Z,68.72
2022-11-29T19:56:08.848Z,68.66
2022-11-29T19:58:37.861Z,68.09
2022-11-29T20:01:06.871Z,68.39
2022-11-29T20:03:37.707Z,67.95
2022-11-29T20:06:08.001Z,67.67
2022-11-29T20:08:37.164Z,67.42
2022-11-29T20:11:09.861Z,67.08
2022-11-29T20:13:38.277Z,66.54
2022-11-29T20:16:09.934Z,67.29
2022-11-29T20:18:39.925Z,66.80
2022-11-29T20:21:11.857Z,66.66
2022-11-29T20:23:40.982Z,66.88
2022-11-29T20:26:14.480Z,66.41
2022-11-29T20:28:46.441Z,66.35
2022-11-29T20:31:16.698Z,66.30
2022-11-29T20:33:46.591Z,66.53
2022-11-29T20:36:27.973Z,66.06
2022-11-29T20:39:04.998Z,65.65
2022-11-29T20:41:42.451Z,65.51
2022-11-29T20:44:19.247Z,65.43
2022-11-29T20:46:48.517Z,65.18
2022-11-29T20:49:18.274Z,65.37
2022-11-29T20:52:02.220Z,64.82
